Time;durP1;ratioP1;P1;durP2;ratioP2;P2;SDS_P1;SDS_P2;PMS_P1;PMS_P2;Temp;Humidity;BMP_temperature;BMP_pressure;BME280_temperature;BME280_humidity;BME280_pressure;Samples;Min_cycle;Max_cycle;Signal;HPM_P1;HPM_P2
2021/04/26 00:00:44;;;;;;;;;;;;;;;20.68;41.11;100968.28;5078627;28;1193;-53
2021/04/26 00:03:10;;;;;;;;;;;;;;;20.55;41.41;100971.72;5096065;28;1009;-56
2021/04/26 00:05:35;;;;;;;;;;;;;;;20.66;41.18;100967.72;5096506;28;679;-55
2021/04/26 00:08:01;;;;;;;;;;;;;;;20.78;40.84;100964.56;5096618;28;755;-56
2021/04/26 00:10:26;;;;;;;;;;;;;;;20.62;41.33;100956.44;5096519;28;557;-55
2021/04/26 00:12:52;;;;;;;;;;;;;;;20.51;41.57;100953.00;5082743;28;1123;-55
2021/04/26 00:15:27;;;;;;;;;;;;;;;20.50;41.45;100958.81;5061590;28;1270;-56
2021/04/26 00:17:53;;;;;;;;;;;;;;;20.29;42.04;100952.72;5108603;28;1941;-54
2021/04/26 00:20:19;;;;;;;;;;;;;;;20.58;41.35;100958.16;5120737;28;842;-53
2021/04/26 00:22:45;;;;;;;;;;;;;;;20.67;41.15;100958.31;5120987;28;811;-49
2021/04/26 00:25:10;;;;;;;;;;;;;;;20.41;41.58;100952.28;5120857;28;846;-53
2021/04/26 00:27:36;;;;;;;;;;;;;;;20.58;41.34;100954.56;5121240;28;747;-54
2021/04/26 00:30:03;;;;;;;;;;;;;;;20.45;41.75;100959.69;5121091;28;806;-53
2021/04/26 00:32:28;;;;;;;;;;;;;;;20.45;41.68;100967.16;5120686;28;1005;-54
2021/04/26 00:34:54;;;;;;;;;;;;;;;20.50;41.33;100965.16;5120513;28;835;-48
2021/04/26 00:37:19;;;;;;;;;;;;;;;20.31;41.90;100967.03;5120744;28;1979;-53
2021/04/26 00:39:45;;;;;;;;;;;;;;;20.48;41.71;100963.81;5120594;28;795;-52
2021/04/26 00:42:10;;;;;;;;;;;;;;;20.17;42.26;100962.25;5120461;28;783;-54
2021/04/26 00:44:35;;;;;;;;;;;;;;;20.11;42.40;100968.91;5102276;28;1132;-55
2021/04/26 00:47:01;;;;;;;;;;;;;;;20.03;42.47;100972.31;5107027;28;1597;-53
2021/04/26 00:49:26;;;;;;;;;;;;;;;20.13;42.23;100968.63;5099890;28;759;-56
2021/04/26 00:51:52;;;;;;;;;;;;;;;20.09;42.33;100976.69;5100008;28;814;-54
2021/04/26 00:54:17;;;;;;;;;;;;;;;20.24;41.95;100967.41;5100140;28;751;-54
2021/04/26 00:56:43;;;;;;;;;;;;;;;20.34;41.80;100970.06;5081833;28;1106;-55
2021/04/26 00:59:08;;;;;;;;;;;;;;;20.16;42.33;100965.28;5100035;28;1905;-55
2021/04/26 01:01:34;;;;;;;;;;;;;;;19.90;43.05;100975.78;5080810;28;970;-53
2021/04/26 01:03:59;;;;;;;;;;;;;;;20.93;40.64;100972.63;5100009;28;787;-48
2021/04/26 01:06:25;;;;;;;;;;;;;;;21.15;40.08;100979.50;5081751;28;1141;-48
2021/04/26 01:08:51;;;;;;;;;;;;;;;20.93;40.61;100971.78;5099784;28;811;-55
2021/04/26 01:11:25;;;;;;;;;;;;;;;20.59;41.18;100970.03;5080148;28;1356;-51
2021/04/26 01:13:53;;;;;;;;;;;;;;;20.13;42.35;100965.88;5079252;28;1055;-55
2021/04/26 01:16:24;;;;;;;;;;;;;;;19.49;43.84;100960.41;5081551;28;951;-55
2021/04/26 01:18:53;;;;;;;;;;;;;;;20.95;40.63;100964.03;5101846;28;1917;-55
2021/04/26 01:21:30;;;;;;;;;;;;;;;21.32;39.61;100957.66;5119642;28;867;-55
2021/04/26 01:24:08;;;;;;;;;;;;;;;21.15;40.06;100958.22;5119634;28;790;-55
2021/04/26 01:26:48;;;;;;;;;;;;;;;20.76;40.66;100962.09;5119662;28;783;-54
2021/04/26 01:29:17;;;;;;;;;;;;;;;19.82;42.83;100961.50;5101678;28;775;-50
2021/04/26 01:31:55;;;;;;;;;;;;;;;20.63;41.34;100965.56;5119633;28;970;-53
2021/04/26 01:34:23;;;;;;;;;;;;;;;21.52;39.16;100956.53;5101579;28;1212;-55
2021/04/26 01:37:02;;;;;;;;;;;;;;;21.11;40.23;100962.69;5102842;28;1905;-55
2021/04/26 01:39:28;;;;;;;;;;;;;;;20.75;40.97;100968.75;5101400;28;846;-55
2021/04/26 01:41:54;;;;;;;;;;;;;;;20.15;42.16;100972.75;5101288;28;514;-52
2021/04/26 01:44:20;;;;;;;;;;;;;;;19.92;43.09;100977.16;5119714;28;809;-54
2021/04/26 01:46:45;;;;;;;;;;;;;;;21.23;40.17;100976.06;5090335;28;1668;-54
2021/04/26 01:49:11;;;;;;;;;;;;;;;21.18;39.97;100967.81;5080935;28;942;-55
2021/04/26 01:51:38;;;;;;;;;;;;;;;21.32;39.59;100967.88;5064398;28;1229;-53
2021/04/26 01:54:04;;;;;;;;;;;;;;;20.53;41.10;100963.75;5081212;28;799;-52
2021/04/26 01:56:32;;;;;;;;;;;;;;;19.96;42.47;100966.31;5098615;28;778;-49
2021/04/26 01:58:58;;;;;;;;;;;;;;;19.44;43.13;100961.25;5080496;28;1985;-55
2021/04/26 02:01:24;;;;;;;;;;;;;;;20.57;41.62;100964.78;5063722;28;1149;-53
2021/04/26 02:03:58;;;;;;;;;;;;;;;21.25;39.60;100959.16;5080271;28;1420;-49
2021/04/26 02:06:44;;;;;;;;;;;;;;;21.19;40.15;100953.69;5091230;28;1141;-54
2021/04/26 02:09:31;;;;;;;;;;;;;;;20.58;41.46;100958.16;5083229;28;668;-54
2021/04/26 02:12:11;;;;;;;;;;;;;;;19.52;43.76;100950.69;5072769;28;1244;-52
2021/04/26 02:14:40;;;;;;;;;;;;;;;20.50;41.75;100954.09;5078479;28;1171;-54
2021/04/26 02:17:05;;;;;;;;;;;;;;;21.33;39.67;100956.53;5075674;28;1909;-53
2021/04/26 02:19:32;;;;;;;;;;;;;;;21.11;40.28;100965.47;5118464;28;822;-53
2021/04/26 02:21:58;;;;;;;;;;;;;;;21.11;40.09;100957.16;5118644;28;798;-54
2021/04/26 02:24:23;;;;;;;;;;;;;;;20.29;41.76;100961.81;5100164;28;930;-47
2021/04/26 02:26:49;;;;;;;;;;;;;;;19.56;43.20;100949.00;5118628;28;1019;-55
2021/04/26 02:29:15;;;;;;;;;;;;;;;20.18;42.36;100952.00;5118421;28;819;-51
2021/04/26 02:31:41;;;;;;;;;;;;;;;21.33;39.89;100958.47;5118522;28;970;-55
2021/04/26 02:34:11;;;;;;;;;;;;;;;20.92;40.65;100953.59;5118407;28;735;-51
2021/04/26 02:36:50;;;;;;;;;;;;;;;20.96;40.28;100954.63;5099696;28;1241;-49
2021/04/26 02:39:17;;;;;;;;;;;;;;;20.03;42.23;100958.53;5083308;28;1983;-50
2021/04/26 02:41:43;;;;;;;;;;;;;;;19.30;44.04;100961.09;5100373;28;767;-54
2021/04/26 02:44:24;;;;;;;;;;;;;;;20.39;41.83;100958.13;5100277;28;1199;-55
2021/04/26 02:46:53;;;;;;;;;;;;;;;21.33;39.78;100952.94;5071672;28;1598;-56
2021/04/26 02:49:19;;;;;;;;;;;;;;;21.02;40.35;100958.97;5079469;28;743;-56
2021/04/26 02:51:45;;;;;;;;;;;;;;;21.10;40.01;100955.53;5079470;28;903;-55
2021/04/26 02:54:12;;;;;;;;;;;;;;;20.40;41.70;100953.41;5079785;28;1200;-55
2021/04/26 02:56:39;;;;;;;;;;;;;;;19.69;43.15;100953.88;5063224;28;1184;-56
2021/04/26 02:59:07;;;;;;;;;;;;;;;20.76;40.97;100952.97;5097441;28;1974;-50
2021/04/26 03:01:37;;;;;;;;;;;;;;;21.40;39.36;100942.31;5078570;28;1322;-56
2021/04/26 03:04:11;;;;;;;;;;;;;;;20.92;40.74;100943.34;5080648;28;843;-56
2021/04/26 03:06:37;;;;;;;;;;;;;;;20.41;41.63;100949.53;5079783;28;1205;-52
2021/04/26 03:09:21;;;;;;;;;;;;;;;19.72;42.87;100946.97;5081906;28;814;-53
2021/04/26 03:11:50;;;;;;;;;;;;;;;19.86;43.23;100949.88;5058112;28;1192;-56
2021/04/26 03:14:16;;;;;;;;;;;;;;;21.24;39.74;100957.50;5059404;28;1189;-58
2021/04/26 03:16:41;;;;;;;;;;;;;;;21.16;40.03;100948.78;5067044;28;1318;-53
2021/04/26 03:19:07;;;;;;;;;;;;;;;21.20;40.06;100943.47;5098866;28;1988;-54
2021/04/26 03:21:33;;;;;;;;;;;;;;;20.29;41.69;100942.50;5117381;28;787;-50
2021/04/26 03:23:59;;;;;;;;;;;;;;;19.70;42.73;100941.72;5099226;28;1089;-58
2021/04/26 03:26:24;;;;;;;;;;;;;;;19.68;43.66;100938.44;5098737;28;759;-58
2021/04/26 03:28:50;;;;;;;;;;;;;;;21.14;40.26;100945.50;5117532;28;799;-56
2021/04/26 03:31:15;;;;;;;;;;;;;;;20.91;40.45;100940.88;5098804;28;1014;-59
2021/04/26 03:33:53;;;;;;;;;;;;;;;21.27;39.29;100945.88;5117571;28;870;-60
2021/04/26 03:36:20;;;;;;;;;;;;;;;20.45;41.01;100951.41;5098804;28;817;-59
2021/04/26 03:38:47;;;;;;;;;;;;;;;19.89;42.55;100949.28;5082283;28;1964;-58
2021/04/26 03:41:13;;;;;;;;;;;;;;;19.73;42.84;100943.91;5082319;28;945;-59
2021/04/26 03:43:42;;;;;;;;;;;;;;;20.32;41.42;100950.19;5082298;28;1134;-58
2021/04/26 03:46:08;;;;;;;;;;;;;;;20.04;41.68;100957.41;5093524;28;1602;-57
2021/04/26 03:48:52;;;;;;;;;;;;;;;19.90;42.11;100946.25;5080694;28;676;-53
2021/04/26 03:51:40;;;;;;;;;;;;;;;21.20;39.30;100951.78;5076996;28;1214;-59
2021/04/26 03:54:35;;;;;;;;;;;;;;;20.92;39.99;100959.13;5087267;28;1204;-54
2021/04/26 03:57:01;;;;;;;;;;;;;;;20.83;39.82;100959.78;5078642;28;771;-53
2021/04/26 03:59:26;;;;;;;;;;;;;;;20.04;41.67;100956.59;5078597;28;1910;-51
2021/04/26 04:01:53;;;;;;;;;;;;;;;19.80;42.56;100958.22;5078250;28;1311;-52
2021/04/26 04:04:18;;;;;;;;;;;;;;;20.08;42.11;100952.13;5078143;28;1210;-52
2021/04/26 04:07:12;;;;;;;;;;;;;;;21.28;39.37;100950.25;5095856;28;1217;-57
2021/04/26 04:09:56;;;;;;;;;;;;;;;20.84;40.09;100953.13;5096632;28;617;-58
2021/04/26 04:12:35;;;;;;;;;;;;;;;20.71;40.44;100953.88;5078682;28;1416;-59
2021/04/26 04:15:08;;;;;;;;;;;;;;;19.97;41.92;100952.22;5096386;28;1111;-61
2021/04/26 04:17:34;;;;;;;;;;;;;;;19.73;42.63;100954.13;5108892;28;1968;-58
2021/04/26 04:20:00;;;;;;;;;;;;;;;21.17;39.68;100967.00;5098744;28;1097;-59
2021/04/26 04:22:25;;;;;;;;;;;;;;;21.00;39.88;100967.56;5084163;28;1098;-57
2021/04/26 04:24:59;;;;;;;;;;;;;;;21.06;39.71;100973.81;5078616;28;1221;-57
2021/04/26 04:27:25;;;;;;;;;;;;;;;20.38;41.02;100969.47;5096286;28;755;-56
2021/04/26 04:29:51;;;;;;;;;;;;;;;19.70;42.29;100965.72;5078628;28;1227;-60
2021/04/26 04:32:35;;;;;;;;;;;;;;;20.73;40.36;100964.63;5107854;28;967;-57
2021/04/26 04:35:18;;;;;;;;;;;;;;;21.20;39.28;100962.84;5116683;28;601;-60
2021/04/26 04:38:03;;;;;;;;;;;;;;;20.98;39.70;100964.25;5116617;28;1980;-60
2021/04/26 04:40:47;;;;;;;;;;;;;;;20.45;40.80;100961.63;5116636;28;610;-58
2021/04/26 04:43:19;;;;;;;;;;;;;;;19.68;42.56;100963.25;5099047;28;1372;-56
2021/04/26 04:45:54;;;;;;;;;;;;;;;20.07;42.18;100958.78;5095115;28;1580;-58
2021/04/26 04:48:43;;;;;;;;;;;;;;;21.40;38.84;100964.44;5058205;28;1319;-58
2021/04/26 04:51:14;;;;;;;;;;;;;;;22.01;37.71;100970.06;5058345;28;1264;-62
2021/04/26 04:53:47;;;;;;;;;;;;;;;20.82;40.16;100965.63;5074795;28;1272;-60
2021/04/26 04:56:14;;;;;;;;;;;;;;;20.99;39.93;100965.09;5058030;28;1071;-63
2021/04/26 04:58:42;;;;;;;;;;;;;;;20.43;40.77;100958.34;5058181;28;1975;-59
2021/04/26 05:01:08;;;;;;;;;;;;;;;19.75;42.41;100955.44;5079150;28;759;-59
2021/04/26 05:03:52;;;;;;;;;;;;;;;19.65;42.71;100964.66;5079927;28;609;-61
2021/04/26 05:06:36;;;;;;;;;;;;;;;19.97;42.12;100971.56;5079483;28;672;-61
2021/04/26 05:09:37;;;;;;;;;;;;;;;20.52;41.00;100968.47;5037326;28;836;-63
2021/04/26 05:12:22;;;;;;;;;;;;;;;20.25;41.17;100968.22;5085816;28;1104;-57
2021/04/26 05:15:26;;;;;;;;;;;;;;;19.54;43.07;100970.56;5017045;28;1252;-56
2021/04/26 05:17:52;;;;;;;;;;;;;;;20.92;39.92;100976.50;5003516;28;1918;-57
2021/04/26 05:20:17;;;;;;;;;;;;;;;21.37;38.93;100971.38;5035717;28;1149;-60
2021/04/26 05:22:43;;;;;;;;;;;;;;;21.03;39.51;100968.91;5061419;28;1197;-60
2021/04/26 05:25:09;;;;;;;;;;;;;;;20.70;40.43;100966.03;5078173;28;1217;-58
2021/04/26 05:27:36;;;;;;;;;;;;;;;20.07;41.69;100959.59;5078028;28;1344;-58
2021/04/26 05:30:04;;;;;;;;;;;;;;;19.85;42.40;100965.59;5078005;28;1283;-60
2021/04/26 05:32:31;;;;;;;;;;;;;;;20.14;41.54;100979.38;5088958;28;1157;-57
2021/04/26 05:35:03;;;;;;;;;;;;;;;20.71;40.53;100981.50;5081071;28;1251;-57
2021/04/26 05:37:29;;;;;;;;;;;;;;;20.37;41.08;100976.09;5098177;28;1909;-60
2021/04/26 05:39:55;;;;;;;;;;;;;;;20.04;41.68;100978.69;5099379;28;835;-59
2021/04/26 05:42:20;;;;;;;;;;;;;;;20.28;41.17;100973.16;5081085;28;1228;-59
2021/04/26 05:44:46;;;;;;;;;;;;;;;20.16;41.54;100979.06;5081075;28;1228;-59
2021/04/26 05:47:26;;;;;;;;;;;;;;;20.40;40.79;100979.09;5080673;28;1661;-58
2021/04/26 05:49:51;;;;;;;;;;;;;;;20.15;41.42;100980.22;5099191;28;1458;-59
2021/04/26 05:52:16;;;;;;;;;;;;;;;19.76;42.64;100981.13;5098924;28;736;-58
2021/04/26 05:54:42;;;;;;;;;;;;;;;19.80;42.54;100985.81;5080693;28;1043;-58
2021/04/26 05:57:07;;;;;;;;;;;;;;;20.65;40.49;100985.41;5098659;28;880;-60
2021/04/26 05:59:33;;;;;;;;;;;;;;;21.31;38.88;100983.69;5098942;28;1906;-60
2021/04/26 06:01:58;;;;;;;;;;;;;;;20.99;39.62;100985.25;5098173;28;970;-59
2021/04/26 06:04:24;;;;;;;;;;;;;;;20.88;39.66;100980.19;5098480;28;831;-58
2021/04/26 06:06:49;;;;;;;;;;;;;;;19.82;42.06;100977.22;5098544;28;752;-59
2021/04/26 06:09:15;;;;;;;;;;;;;;;19.80;42.36;100982.22;5098278;28;1165;-59
2021/04/26 06:11:40;;;;;;;;;;;;;;;21.18;39.21;100973.34;5097581;28;1127;-56
2021/04/26 06:14:06;;;;;;;;;;;;;;;21.14;39.18;100970.38;5098446;28;1051;-56
2021/04/26 06:16:31;;;;;;;;;;;;;;;21.14;39.34;100966.78;5097918;28;997;-61
2021/04/26 06:18:57;;;;;;;;;;;;;;;20.34;40.73;100969.22;5098134;28;1913;-60
2021/04/26 06:21:22;;;;;;;;;;;;;;;19.80;42.46;100968.44;5098259;28;807;-59
2021/04/26 06:23:48;;;;;;;;;;;;;;;20.02;42.16;100959.66;5098309;28;756;-59
2021/04/26 06:26:13;;;;;;;;;;;;;;;21.26;39.27;100958.84;5098005;28;911;-59
2021/04/26 06:28:38;;;;;;;;;;;;;;;21.17;39.35;100961.47;5098255;28;831;-59
2021/04/26 06:31:04;;;;;;;;;;;;;;;21.35;38.73;100962.59;5098420;28;822;-59
2021/04/26 06:33:29;;;;;;;;;;;;;;;20.59;40.34;100962.53;5094854;28;997;-58
2021/04/26 06:35:55;;;;;;;;;;;;;;;19.63;42.37;100968.84;5097199;28;957;-58
2021/04/26 06:38:21;;;;;;;;;;;;;;;20.67;40.50;100977.66;5097037;28;1975;-60
2021/04/26 06:40:47;;;;;;;;;;;;;;;21.48;38.60;100979.53;5097485;28;947;-58
2021/04/26 06:43:12;;;;;;;;;;;;;;;20.93;39.96;100982.84;5097723;28;820;-58
2021/04/26 06:45:39;;;;;;;;;;;;;;;21.24;39.43;100982.41;5097631;28;1677;-62
2021/04/26 06:48:05;;;;;;;;;;;;;;;19.93;41.90;100983.47;5097563;28;954;-58
2021/04/26 06:50:30;;;;;;;;;;;;;;;19.80;42.32;100972.00;5097742;28;830;-57
2021/04/26 06:52:56;;;;;;;;;;;;;;;20.43;40.94;100975.75;5098074;28;773;-56
2021/04/26 06:55:22;;;;;;;;;;;;;;;20.65;40.42;100975.19;5097891;28;772;-60
2021/04/26 06:57:47;;;;;;;;;;;;;;;20.87;40.13;100975.75;5097562;28;1972;-60
2021/04/26 07:00:13;;;;;;;;;;;;;;;21.05;39.60;100974.94;5097534;28;775;-60
2021/04/26 07:02:39;;;;;;;;;;;;;;;21.22;39.29;100977.16;5096996;28;1033;-61
2021/04/26 07:05:05;;;;;;;;;;;;;;;21.41;39.08;100968.03;5097612;28;807;-58
2021/04/26 07:07:30;;;;;;;;;;;;;;;21.28;39.24;100966.84;5097290;28;767;-60
2021/04/26 07:09:56;;;;;;;;;;;;;;;21.47;38.74;100980.66;5097428;28;795;-55
2021/04/26 07:12:21;;;;;;;;;;;;;;;21.39;39.10;100975.81;5088073;28;1178;-59
2021/04/26 07:14:47;;;;;;;;;;;;;;;21.34;39.21;100976.72;5076640;28;1020;-58
2021/04/26 07:17:12;;;;;;;;;;;;;;;21.51;38.80;100971.44;5091966;28;1980;-57
2021/04/26 07:19:38;;;;;;;;;;;;;;;21.46;38.75;100982.63;5115841;28;800;-57
2021/04/26 07:22:03;;;;;;;;;;;;;;;21.51;38.73;100974.22;5096705;28;779;-57
2021/04/26 07:24:29;;;;;;;;;;;;;;;21.51;38.80;100985.28;5097470;28;779;-57
2021/04/26 07:26:54;;;;;;;;;;;;;;;21.71;38.41;100986.09;5097156;28;811;-57
2021/04/26 07:29:20;;;;;;;;;;;;;;;21.71;38.53;100983.31;5079084;28;827;-55
2021/04/26 07:31:45;;;;;;;;;;;;;;;21.94;38.05;100984.31;5101460;28;1002;-55
2021/04/26 07:34:11;;;;;;;;;;;;;;;21.76;38.34;100982.44;5117312;28;783;-57
2021/04/26 07:36:36;;;;;;;;;;;;;;;21.94;37.89;100981.53;5117350;28;791;-57
2021/04/26 07:39:03;;;;;;;;;;;;;;;21.92;38.18;100986.53;5117569;28;1914;-57
2021/04/26 07:41:28;;;;;;;;;;;;;;;21.49;39.11;100982.00;5117634;28;749;-56
2021/04/26 07:43:54;;;;;;;;;;;;;;;21.30;39.55;100981.22;5117306;28;857;-58
2021/04/26 07:46:19;;;;;;;;;;;;;;;20.92;40.05;100970.97;5110114;28;1632;-58
2021/04/26 07:48:44;;;;;;;;;;;;;;;21.47;39.20;100975.13;5096712;28;728;-56
2021/04/26 07:51:10;;;;;;;;;;;;;;;21.50;39.08;100969.81;5096818;28;755;-60
2021/04/26 07:53:35;;;;;;;;;;;;;;;21.83;38.30;100975.34;5096785;28;759;-57
2021/04/26 07:56:01;;;;;;;;;;;;;;;21.93;37.96;100987.38;5096706;28;783;-56
2021/04/26 07:58:26;;;;;;;;;;;;;;;21.51;38.85;100973.41;5096350;28;1910;-60
2021/04/26 08:00:52;;;;;;;;;;;;;;;21.87;38.08;100979.16;5096677;28;826;-56
2021/04/26 08:03:19;;;;;;;;;;;;;;;21.76;38.41;100977.69;5096603;28;977;-57
2021/04/26 08:05:44;;;;;;;;;;;;;;;21.36;39.29;100971.69;5096328;28;874;-58
2021/04/26 08:08:09;;;;;;;;;;;;;;;21.11;39.92;100979.28;5096675;28;775;-57
2021/04/26 08:10:35;;;;;;;;;;;;;;;20.83;40.37;100984.66;5096814;28;755;-57
2021/04/26 08:13:00;;;;;;;;;;;;;;;21.26;39.42;100985.69;5081661;28;1079;-58
2021/04/26 08:15:26;;;;;;;;;;;;;;;21.73;38.60;100983.00;5076115;28;1253;-57
2021/04/26 08:17:52;;;;;;;;;;;;;;;21.96;37.85;100986.75;5089766;28;1917;-60
2021/04/26 08:20:18;;;;;;;;;;;;;;;21.92;38.22;100981.00;5096726;28;764;-58
2021/04/26 08:22:43;;;;;;;;;;;;;;;22.04;37.71;100975.78;5096622;28;807;-59
2021/04/26 08:25:09;;;;;;;;;;;;;;;21.81;38.43;100974.84;5096579;28;778;-61
2021/04/26 08:27:34;;;;;;;;;;;;;;;21.05;39.86;100969.41;5096687;28;778;-60
2021/04/26 08:29:59;;;;;;;;;;;;;;;21.00;39.93;100970.31;5096477;28;827;-58
2021/04/26 08:32:25;;;;;;;;;;;;;;;20.99;40.14;100959.56;5095710;28;1025;-57
2021/04/26 08:34:50;;;;;;;;;;;;;;;21.46;39.21;100963.25;5098088;28;819;-58
2021/04/26 08:37:16;;;;;;;;;;;;;;;21.83;38.29;100961.50;5100418;28;1913;-58
2021/04/26 08:39:41;;;;;;;;;;;;;;;22.02;37.70;100963.38;5100083;28;791;-57
2021/04/26 08:42:07;;;;;;;;;;;;;;;22.14;37.46;100965.66;5100583;28;798;-56
2021/04/26 08:44:33;;;;;;;;;;;;;;;21.71;38.35;100969.47;5100177;28;740;-58
2021/04/26 08:46:59;;;;;;;;;;;;;;;21.29;39.42;100968.50;5099554;28;1585;-58
2021/04/26 08:49:24;;;;;;;;;;;;;;;21.20;39.62;100966.41;5082083;28;815;-53
2021/04/26 08:51:50;;;;;;;;;;;;;;;21.33;39.54;100966.78;5100131;28;767;-51
2021/04/26 08:54:15;;;;;;;;;;;;;;;21.77;38.42;100968.28;5099832;28;815;-55
2021/04/26 08:56:41;;;;;;;;;;;;;;;21.98;37.96;100956.81;5099915;28;851;-56
2021/04/26 08:59:07;;;;;;;;;;;;;;;21.86;38.20;100955.34;5099788;28;1909;-57
2021/04/26 09:01:32;;;;;;;;;;;;;;;21.85;38.01;100948.19;5097640;28;1025;-53
2021/04/26 09:04:08;;;;;;;;;;;;;;;22.09;37.63;100941.66;5099988;28;811;-57
2021/04/26 09:06:53;;;;;;;;;;;;;;;22.38;37.02;100937.78;5099801;28;752;-56
2021/04/26 09:09:34;;;;;;;;;;;;;;;21.67;38.47;100940.75;5099592;28;767;-58
2021/04/26 09:11:59;;;;;;;;;;;;;;;21.44;39.07;100935.06;5093661;28;1198;-53
2021/04/26 09:14:41;;;;;;;;;;;;;;;21.13;39.70;100932.78;5079105;28;1039;-52
2021/04/26 09:17:25;;;;;;;;;;;;;;;21.51;38.98;100927.16;5093530;28;1104;-57
2021/04/26 09:19:51;;;;;;;;;;;;;;;22.01;37.83;100942.38;5099548;28;998;-55
2021/04/26 09:22:16;;;;;;;;;;;;;;;22.15;37.73;100932.13;5099204;28;850;-56
2021/04/26 09:24:42;;;;;;;;;;;;;;;22.16;37.40;100928.22;5099477;28;931;-53
2021/04/26 09:27:10;;;;;;;;;;;;;;;21.68;38.67;100931.34;5099334;28;755;-54
2021/04/26 09:29:35;;;;;;;;;;;;;;;21.49;38.87;100918.38;5099077;28;774;-51
2021/04/26 09:32:07;;;;;;;;;;;;;;;21.39;39.13;100917.72;5098806;28;970;-50
2021/04/26 09:34:41;;;;;;;;;;;;;;;21.73;38.37;100909.13;5099091;28;823;-55
2021/04/26 09:37:10;;;;;;;;;;;;;;;22.02;37.72;100903.28;5099114;28;798;-54
2021/04/26 09:39:36;;;;;;;;;;;;;;;22.10;37.40;100906.47;5099287;28;1966;-55
2021/04/26 09:42:02;;;;;;;;;;;;;;;22.08;37.39;100895.72;5098961;28;771;-53
2021/04/26 09:44:27;;;;;;;;;;;;;;;21.98;37.73;100885.66;5098849;28;776;-56
2021/04/26 09:46:53;;;;;;;;;;;;;;;21.64;38.57;100892.41;5098265;28;1660;-54
2021/04/26 09:49:18;;;;;;;;;;;;;;;21.52;38.59;100889.31;5098687;28;801;-59
2021/04/26 09:51:45;;;;;;;;;;;;;;;21.12;39.62;100883.31;5098673;28;802;-55
2021/04/26 09:54:10;;;;;;;;;;;;;;;21.70;38.32;100896.72;5098850;28;767;-54
2021/04/26 09:56:40;;;;;;;;;;;;;;;22.03;37.71;100884.72;5098480;28;779;-55
2021/04/26 09:59:06;;;;;;;;;;;;;;;22.04;37.38;100883.59;5098741;28;1977;-55
2021/04/26 10:01:31;;;;;;;;;;;;;;;21.77;37.99;100876.94;5098503;28;958;-56
2021/04/26 10:03:57;;;;;;;;;;;;;;;21.94;37.67;100875.50;5098442;28;804;-57
2021/04/26 10:06:24;;;;;;;;;;;;;;;22.12;37.26;100873.75;5098781;28;767;-54
2021/04/26 10:08:56;;;;;;;;;;;;;;;22.09;37.34;100875.19;5098511;28;795;-55
2021/04/26 10:11:22;;;;;;;;;;;;;;;21.80;38.06;100867.22;5097127;28;1178;-51
2021/04/26 10:13:48;;;;;;;;;;;;;;;21.48;38.64;100886.28;5078405;28;1076;-53
2021/04/26 10:16:18;;;;;;;;;;;;;;;21.03;39.28;100880.44;5060485;28;935;-54
2021/04/26 10:18:43;;;;;;;;;;;;;;;21.12;39.21;100883.31;5059903;28;1988;-54
2021/04/26 10:21:18;;;;;;;;;;;;;;;21.60;38.40;100885.00;5077912;28;784;-53
2021/04/26 10:23:44;;;;;;;;;;;;;;;21.91;37.70;100887.19;5080661;28;821;-53
2021/04/26 10:26:29;;;;;;;;;;;;;;;22.01;37.41;100881.47;5098154;28;763;-50
2021/04/26 10:29:11;;;;;;;;;;;;;;;22.20;36.91;100884.09;5098045;28;1638;-50
2021/04/26 10:31:55;;;;;;;;;;;;;;;22.21;37.08;100883.78;5097663;28;946;-52
2021/04/26 10:34:21;;;;;;;;;;;;;;;22.04;37.39;100880.84;5097966;28;755;-55
2021/04/26 10:36:47;;;;;;;;;;;;;;;21.74;38.00;100880.31;5097765;28;856;-52
2021/04/26 10:39:16;;;;;;;;;;;;;;;21.35;38.55;100873.25;5097692;28;1917;-56
2021/04/26 10:41:48;;;;;;;;;;;;;;;21.07;39.37;100875.09;5097950;28;799;-51
2021/04/26 10:44:14;;;;;;;;;;;;;;;21.35;38.81;100874.06;5097770;28;867;-55
2021/04/26 10:46:39;;;;;;;;;;;;;;;21.75;37.97;100862.56;5097043;28;1590;-50
2021/04/26 10:49:06;;;;;;;;;;;;;;;22.01;37.51;100862.06;5097383;28;883;-51
2021/04/26 10:51:32;;;;;;;;;;;;;;;21.99;37.50;100870.69;5097738;28;787;-52
2021/04/26 10:53:57;;;;;;;;;;;;;;;22.09;37.52;100866.91;5097456;28;810;-61
2021/04/26 10:56:26;;;;;;;;;;;;;;;22.24;36.97;100865.72;5097557;28;799;-59
2021/04/26 10:58:52;;;;;;;;;;;;;;;21.58;38.58;100854.88;5097106;28;1975;-58
2021/04/26 11:01:38;;;;;;;;;;;;;;;21.27;39.10;100865.66;5097060;28;1006;-57
2021/04/26 11:04:06;;;;;;;;;;;;;;;21.03;39.70;100855.56;5078778;28;1930;-56
2021/04/26 11:06:32;;;;;;;;;;;;;;;21.65;38.31;100860.81;5097398;28;815;-59
2021/04/26 11:09:07;;;;;;;;;;;;;;;21.85;37.78;100865.16;5097768;28;759;-60
2021/04/26 11:11:36;;;;;;;;;;;;;;;21.99;37.65;100853.25;5097565;28;1158;-55
2021/04/26 11:14:04;;;;;;;;;;;;;;;21.92;37.58;100852.84;5097109;28;1189;-55
2021/04/26 11:16:30;;;;;;;;;;;;;;;21.93;37.68;100846.19;5099339;28;1001;-57
2021/04/26 11:18:59;;;;;;;;;;;;;;;22.11;37.53;100848.00;5117565;28;1890;-54
2021/04/26 11:21:48;;;;;;;;;;;;;;;21.76;38.28;100849.56;5117388;28;819;-60
2021/04/26 11:24:16;;;;;;;;;;;;;;;21.25;39.34;100846.59;5117371;28;759;-59
2021/04/26 11:26:41;;;;;;;;;;;;;;;21.07;39.63;100845.53;5097848;28;828;-51
2021/04/26 11:29:16;;;;;;;;;;;;;;;21.17;39.27;100848.09;5097154;28;751;-59
2021/04/26 11:31:41;;;;;;;;;;;;;;;21.79;37.93;100843.41;5100818;28;946;-58
2021/04/26 11:34:07;;;;;;;;;;;;;;;21.92;37.69;100848.13;5117248;28;751;-60
2021/04/26 11:36:34;;;;;;;;;;;;;;;22.14;37.39;100843.81;5117351;28;815;-59
2021/04/26 11:39:00;;;;;;;;;;;;;;;22.20;37.32;100839.78;5117439;28;1986;-53
2021/04/26 11:41:26;;;;;;;;;;;;;;;22.25;37.15;100849.94;5117070;28;886;-51
2021/04/26 11:43:51;;;;;;;;;;;;;;;21.80;38.37;100837.56;5098818;28;1253;-53
2021/04/26 11:46:24;;;;;;;;;;;;;;;21.53;38.94;100841.97;5110245;28;1570;-58
2021/04/26 11:48:49;;;;;;;;;;;;;;;21.17;39.55;100831.53;5096750;28;810;-55
2021/04/26 11:51:33;;;;;;;;;;;;;;;21.15;40.26;100831.00;5096486;28;779;-54
2021/04/26 11:54:11;;;;;;;;;;;;;;;21.72;38.90;100823.63;5096625;28;794;-50
2021/04/26 11:56:36;;;;;;;;;;;;;;;21.67;39.02;100819.00;5096473;28;827;-49
2021/04/26 11:59:05;;;;;;;;;;;;;;;22.08;38.18;100826.47;5096647;28;1988;-50
2021/04/26 12:01:30;;;;;;;;;;;;;;;22.17;37.77;100813.53;5096410;28;962;-62
2021/04/26 12:03:57;;;;;;;;;;;;;;;21.60;39.05;100810.28;5096369;28;854;-50
2021/04/26 12:06:22;;;;;;;;;;;;;;;21.18;40.23;100810.22;5096432;28;814;-51
2021/04/26 12:08:48;;;;;;;;;;;;;;;21.41;39.36;100800.13;5096542;28;752;-53
2021/04/26 12:11:17;;;;;;;;;;;;;;;21.19;39.83;100793.31;5100425;28;783;-54
2021/04/26 12:13:42;;;;;;;;;;;;;;;21.46;39.58;100805.56;5080437;28;1078;-54
2021/04/26 12:16:08;;;;;;;;;;;;;;;21.70;38.99;100808.16;5080284;28;748;-52
2021/04/26 12:18:33;;;;;;;;;;;;;;;21.79;38.78;100810.19;5099539;28;1918;-51
2021/04/26 12:20:59;;;;;;;;;;;;;;;21.70;39.02;100790.75;5082335;28;744;-50
2021/04/26 12:23:24;;;;;;;;;;;;;;;21.86;38.74;100789.25;5082694;28;768;-52
2021/04/26 12:25:49;;;;;;;;;;;;;;;21.64;38.94;100800.25;5100452;28;784;-51
2021/04/26 12:28:15;;;;;;;;;;;;;;;21.53;39.15;100789.41;5082425;28;749;-49
2021/04/26 12:30:44;;;;;;;;;;;;;;;21.23;39.82;100788.00;5100535;28;866;-50
2021/04/26 12:33:22;;;;;;;;;;;;;;;20.96;40.58;100788.78;5099756;28;946;-54
2021/04/26 12:35:48;;;;;;;;;;;;;;;21.52;39.05;100782.22;5100384;28;811;-51
2021/04/26 12:38:14;;;;;;;;;;;;;;;21.76;39.06;100778.41;5100260;28;1910;-49
2021/04/26 12:40:40;;;;;;;;;;;;;;;21.97;38.19;100778.00;5100296;28;1240;-50
2021/04/26 12:43:09;;;;;;;;;;;;;;;21.92;38.62;100770.59;5100266;28;867;-51
2021/04/26 12:45:41;;;;;;;;;;;;;;;21.82;38.43;100763.34;5100075;28;1605;-51
2021/04/26 12:48:16;;;;;;;;;;;;;;;21.61;39.31;100765.72;5099975;28;998;-52
2021/04/26 12:50:48;;;;;;;;;;;;;;;21.20;39.97;100764.53;5100554;28;811;-51
2021/04/26 12:53:29;;;;;;;;;;;;;;;21.19;40.04;100756.56;5100297;28;866;-52
2021/04/26 12:55:55;;;;;;;;;;;;;;;21.80;39.01;100771.13;5081037;28;875;-53
2021/04/26 12:58:20;;;;;;;;;;;;;;;21.87;38.61;100762.44;5099873;28;1992;-51
2021/04/26 13:00:50;;;;;;;;;;;;;;;21.86;38.63;100760.78;5099976;28;729;-56